Anzahl Datensätze: 287
min. Temperatur: 18.6 °C
max. Temperatur: 30.7 °C
max. Windgeschwindigkeit: 32.0 km/h
Niederschlagsumme: 11.4 mm
| Datum |
Zeit |
Temp °C |
Feuchte % |
Taupunkt °C |
Luftdruck hPa |
Wind km/h |
Windrichtung |
Strahlung w/m² |
Niederschlag mm |
|---|---|---|---|---|---|---|---|---|---|
| 22.06.2023 | 00:04 | 22.7 | 79 | 18.9 | 1014.8 | 1.4 | NNO | 0 | 2.2 |
| 22.06.2023 | 00:08 | 22.5 | 80 | 18.9 | 1014.9 | 3.2 | NNW | 0 | 0.0 |
| 22.06.2023 | 00:14 | 22.4 | 81 | 19.0 | 1015.5 | 3.2 | WNW | 0 | 0.0 |
| 22.06.2023 | 00:18 | 22.3 | 81 | 18.9 | 1016.0 | 3.2 | WNW | 0 | 0.0 |
| 22.06.2023 | 00:24 | 22.1 | 82 | 18.9 | 1016.2 | 4.7 | WNW | 0 | 0.0 |
| 22.06.2023 | 00:28 | 21.8 | 84 | 19.0 | 1016.2 | 6.5 | NW | 0 | 0.0 |
| 22.06.2023 | 00:34 | 21.0 | 87 | 18.8 | 1015.6 | 6.5 | N | 0 | 0.4 |
| 22.06.2023 | 00:38 | 20.7 | 88 | 18.6 | 1015.4 | 6.5 | NNW | 0 | 0.6 |
| 22.06.2023 | 00:44 | 20.4 | 90 | 18.7 | 1015.3 | 4.7 | ONO | 0 | 0.6 |
| 22.06.2023 | 00:48 | 20.4 | 90 | 18.7 | 1015.3 | 3.2 | NNO | 0 | 0.6 |
| 22.06.2023 | 00:54 | 20.4 | 91 | 18.9 | 1015.2 | 1.4 | NNO | 0 | 0.6 |
| 22.06.2023 | 00:58 | 20.3 | 91 | 18.8 | 1015.1 | 1.4 | N | 0 | 0.6 |
| 22.06.2023 | 01:04 | 20.3 | 91 | 18.8 | 1014.7 | 1.4 | NNW | 0 | 0.6 |
| 22.06.2023 | 01:08 | 20.2 | 91 | 18.7 | 1014.9 | 1.4 | NNW | 0 | 0.6 |
| 22.06.2023 | 01:14 | 20.2 | 91 | 18.7 | 1014.9 | 1.4 | NNW | 0 | 0.6 |
| 22.06.2023 | 01:18 | 20.1 | 91 | 18.6 | 1014.9 | 1.4 | N | 0 | 0.6 |
| 22.06.2023 | 01:24 | 20.1 | 91 | 18.6 | 1014.5 | 1.4 | ONO | 0 | 0.6 |
| 22.06.2023 | 01:28 | 20.1 | 91 | 18.6 | 1014.5 | 1.4 | NNO | 0 | 0.6 |
| 22.06.2023 | 01:34 | 20.1 | 91 | 18.6 | 1014.4 | 1.4 | N | 0 | 0.6 |
| 22.06.2023 | 01:38 | 20.1 | 91 | 18.6 | 1014.4 | 1.4 | N | 0 | 0.6 |
| 22.06.2023 | 01:44 | 19.9 | 91 | 18.4 | 1014.5 | 1.4 | NNW | 0 | 0.6 |
| 22.06.2023 | 01:48 | 19.9 | 92 | 18.6 | 1014.5 | 1.4 | NW | 0 | 0.6 |
| 22.06.2023 | 01:54 | 19.8 | 92 | 18.5 | 1014.4 | 3.2 | NNW | 0 | 0.6 |
| 22.06.2023 | 01:58 | 19.7 | 92 | 18.4 | 1014.5 | 4.7 | NNW | 0 | 0.6 |
| 22.06.2023 | 02:04 | 19.7 | 92 | 18.4 | 1014.4 | 3.2 | N | 0 | 0.6 |
| 22.06.2023 | 02:08 | 19.7 | 92 | 18.4 | 1014.6 | 1.4 | N | 0 | 0.6 |
| 22.06.2023 | 02:14 | 19.8 | 92 | 18.5 | 1016.4 | 3.2 | WSW | 0 | 0.6 |
| 22.06.2023 | 02:18 | 19.8 | 92 | 18.5 | 1017.6 | 7.9 | W | 0 | 0.6 |
| 22.06.2023 | 02:24 | 19.9 | 92 | 18.6 | 1016.1 | 13.0 | NNO | 0 | 0.6 |
| 22.06.2023 | 02:28 | 19.9 | 93 | 18.7 | 1015.1 | 9.7 | N | 0 | 0.6 |
| 22.06.2023 | 02:34 | 19.7 | 93 | 18.5 | 1015.5 | 6.5 | N | 0 | 6.4 |
| 22.06.2023 | 02:38 | 19.6 | 93 | 18.4 | 1015.0 | 6.5 | ONO | 0 | 6.6 |
| 22.06.2023 | 02:44 | 19.6 | 94 | 18.6 | 1015.0 | 4.7 | NNW | 0 | 6.6 |
| 22.06.2023 | 02:48 | 19.6 | 94 | 18.6 | 1015.2 | 6.5 | NNW | 0 | 6.6 |
| 22.06.2023 | 02:54 | 19.4 | 94 | 18.4 | 1015.1 | 6.5 | NW | 0 | 6.6 |
| 22.06.2023 | 02:58 | 19.3 | 94 | 18.3 | 1015.1 | 6.5 | N | 0 | 6.6 |
| 22.06.2023 | 03:04 | 19.3 | 94 | 18.3 | 1014.9 | 7.9 | NNW | 0 | 6.6 |
| 22.06.2023 | 03:08 | 19.3 | 94 | 18.3 | 1014.8 | 7.9 | N | 0 | 6.6 |
| 22.06.2023 | 03:14 | 19.3 | 94 | 18.3 | 1014.7 | 6.5 | N | 0 | 6.6 |
| 22.06.2023 | 03:18 | 19.2 | 94 | 18.2 | 1014.7 | 4.7 | N | 0 | 6.6 |
| 22.06.2023 | 03:24 | 19.2 | 95 | 18.4 | 1014.9 | 3.2 | N | 0 | 6.6 |
| 22.06.2023 | 03:28 | 19.2 | 95 | 18.4 | 1014.9 | 1.4 | NNO | 0 | 6.6 |
| 22.06.2023 | 03:34 | 19.1 | 95 | 18.3 | 1014.8 | 1.4 | NNW | 0 | 6.6 |
| 22.06.2023 | 03:38 | 19.0 | 95 | 18.2 | 1014.9 | 1.4 | NNO | 0 | 6.6 |
| 22.06.2023 | 03:44 | 19.0 | 95 | 18.2 | 1015.0 | 0.0 | NO | 0 | 6.6 |
| 22.06.2023 | 03:48 | 18.9 | 95 | 18.1 | 1015.0 | 0.0 | NNW | 0 | 6.6 |
| 22.06.2023 | 03:54 | 18.9 | 95 | 18.1 | 1014.8 | 1.4 | N | 0 | 6.6 |
| 22.06.2023 | 03:58 | 18.9 | 95 | 18.1 | 1014.9 | 3.2 | NNO | 0 | 6.6 |
| 22.06.2023 | 04:04 | 18.9 | 95 | 18.1 | 1014.8 | 3.2 | NNO | 0 | 6.6 |
| 22.06.2023 | 04:08 | 18.9 | 96 | 18.2 | 1014.8 | 4.7 | NO | 0 | 6.6 |
| 22.06.2023 | 04:14 | 18.9 | 96 | 18.2 | 1014.8 | 4.7 | NNO | 0 | 6.6 |
| 22.06.2023 | 04:18 | 18.9 | 96 | 18.2 | 1014.7 | 3.2 | NO | 0 | 6.8 |
| 22.06.2023 | 04:24 | 18.8 | 95 | 18.0 | 1014.7 | 3.2 | NNO | 0 | 6.8 |
| 22.06.2023 | 04:28 | 18.8 | 95 | 18.0 | 1014.6 | 3.2 | NO | 0 | 6.8 |
| 22.06.2023 | 04:34 | 18.8 | 95 | 18.0 | 1014.6 | 3.2 | NO | 0 | 6.8 |
| 22.06.2023 | 04:38 | 18.8 | 95 | 18.0 | 1014.6 | 3.2 | NO | 0 | 6.8 |
| 22.06.2023 | 04:44 | 18.7 | 96 | 18.0 | 1014.5 | 4.7 | ONO | 0 | 6.8 |
| 22.06.2023 | 04:48 | 18.7 | 96 | 18.0 | 1014.4 | 3.2 | ONO | 0 | 6.8 |
| 22.06.2023 | 04:54 | 18.7 | 96 | 18.0 | 1014.4 | 4.7 | NO | 0 | 6.8 |
| 22.06.2023 | 04:58 | 18.7 | 96 | 18.0 | 1014.3 | 4.7 | ONO | 0 | 6.8 |
| 22.06.2023 | 05:04 | 18.7 | 96 | 18.0 | 1014.4 | 4.7 | ONO | 0 | 6.8 |
| 22.06.2023 | 05:08 | 18.7 | 96 | 18.0 | 1014.4 | 4.7 | NNO | 0 | 6.8 |
| 22.06.2023 | 05:14 | 18.6 | 96 | 17.9 | 1014.3 | 6.5 | ONO | 0 | 6.8 |
| 22.06.2023 | 05:18 | 18.7 | 96 | 18.0 | 1014.3 | 6.5 | NO | 0 | 6.8 |
| 22.06.2023 | 05:24 | 18.7 | 96 | 18.0 | 1014.2 | 6.5 | N | 0 | 6.8 |
| 22.06.2023 | 05:28 | 18.7 | 96 | 18.0 | 1014.3 | 4.7 | NO | 5 | 6.8 |
| 22.06.2023 | 05:34 | 18.6 | 96 | 17.9 | 1014.2 | 4.7 | NO | 7 | 6.8 |
| 22.06.2023 | 05:38 | 18.7 | 96 | 18.0 | 1014.3 | 4.7 | ONO | 11 | 6.8 |
| 22.06.2023 | 05:44 | 18.7 | 96 | 18.0 | 1014.3 | 4.7 | NO | 12 | 6.8 |
| 22.06.2023 | 05:48 | 18.6 | 96 | 17.9 | 1014.2 | 4.7 | NNO | 14 | 6.8 |
| 22.06.2023 | 05:54 | 18.6 | 96 | 17.9 | 1014.1 | 4.7 | ONO | 18 | 6.8 |
| 22.06.2023 | 05:58 | 18.6 | 96 | 17.9 | 1014.2 | 3.2 | NNO | 19 | 6.8 |
| 22.06.2023 | 06:04 | 18.6 | 96 | 17.9 | 1014.3 | 3.2 | NNW | 21 | 6.8 |
| 22.06.2023 | 06:08 | 18.6 | 96 | 17.9 | 1014.2 | 1.4 | NO | 26 | 6.8 |
| 22.06.2023 | 06:14 | 18.7 | 96 | 18.0 | 1014.2 | 3.2 | N | 30 | 6.8 |
| 22.06.2023 | 06:18 | 18.7 | 96 | 18.0 | 1014.1 | 3.2 | NNO | 33 | 6.8 |
| 22.06.2023 | 06:24 | 18.7 | 96 | 18.0 | 1014.1 | 3.2 | NNO | 37 | 6.8 |
| 22.06.2023 | 06:28 | 18.7 | 96 | 18.0 | 1014.2 | 4.7 | N | 39 | 6.8 |
| 22.06.2023 | 06:34 | 18.7 | 96 | 18.0 | 1014.0 | 4.7 | NNW | 46 | 6.8 |
| 22.06.2023 | 06:38 | 18.8 | 96 | 18.1 | 1014.0 | 3.2 | NNW | 47 | 6.8 |
| 22.06.2023 | 06:44 | 18.8 | 96 | 18.1 | 1014.0 | 3.2 | NNO | 54 | 6.8 |
| 22.06.2023 | 06:48 | 18.9 | 96 | 18.2 | 1013.9 | 3.2 | N | 58 | 6.8 |
| 22.06.2023 | 06:54 | 18.9 | 96 | 18.2 | 1013.8 | 4.7 | NO | 67 | 6.8 |
| 22.06.2023 | 06:58 | 19.0 | 96 | 18.3 | 1013.8 | 3.2 | N | 70 | 6.8 |
| 22.06.2023 | 07:04 | 19.1 | 96 | 18.4 | 1013.8 | 4.7 | NW | 76 | 6.8 |
| 22.06.2023 | 07:08 | 19.2 | 96 | 18.5 | 1013.7 | 4.7 | NNW | 77 | 6.8 |
| 22.06.2023 | 07:14 | 19.3 | 96 | 18.6 | 1013.7 | 4.7 | N | 83 | 6.8 |
| 22.06.2023 | 07:18 | 19.3 | 96 | 18.6 | 1013.7 | 4.7 | NO | 86 | 6.8 |
| 22.06.2023 | 07:24 | 19.4 | 96 | 18.7 | 1013.6 | 4.7 | NW | 91 | 6.8 |
| 22.06.2023 | 07:28 | 19.5 | 96 | 18.8 | 1013.6 | 4.7 | NNW | 93 | 6.8 |
| 22.06.2023 | 07:34 | 19.7 | 96 | 19.0 | 1013.6 | 4.7 | NNW | 100 | 6.8 |
| 22.06.2023 | 07:38 | 19.7 | 95 | 18.9 | 1013.6 | 4.7 | NNO | 102 | 6.8 |
| 22.06.2023 | 07:44 | 19.8 | 95 | 19.0 | 1013.5 | 4.7 | NO | 105 | 6.8 |
| 22.06.2023 | 07:48 | 19.8 | 95 | 19.0 | 1013.5 | 4.7 | NO | 109 | 6.8 |
| 22.06.2023 | 07:54 | 19.9 | 94 | 18.9 | 1013.6 | 6.5 | NO | 120 | 6.8 |
| 22.06.2023 | 07:58 | 20.0 | 94 | 19.0 | 1013.6 | 6.5 | NNO | 156 | 6.8 |
| 22.06.2023 | 08:04 | 20.1 | 94 | 19.1 | 1013.5 | 6.5 | ONO | 255 | 6.8 |
| 22.06.2023 | 08:08 | 20.3 | 94 | 19.3 | 1013.5 | 7.9 | NNO | 281 | 6.8 |
| 22.06.2023 | 08:14 | 20.4 | 93 | 19.2 | 1013.6 | 6.5 | NNW | 309 | 6.8 |
| 22.06.2023 | 08:18 | 20.6 | 93 | 19.4 | 1013.5 | 6.5 | N | 308 | 6.8 |
| 22.06.2023 | 08:24 | 20.7 | 92 | 19.4 | 1013.5 | 6.5 | N | 301 | 6.8 |
| 22.06.2023 | 08:28 | 20.9 | 92 | 19.6 | 1013.5 | 4.7 | NNW | 318 | 6.8 |
| 22.06.2023 | 08:34 | 21.0 | 91 | 19.5 | 1013.5 | 6.5 | NW | 322 | 6.8 |
| 22.06.2023 | 08:38 | 21.0 | 91 | 19.5 | 1013.4 | 6.5 | ONO | 350 | 6.8 |
| 22.06.2023 | 08:44 | 21.3 | 90 | 19.6 | 1013.3 | 6.5 | NNO | 385 | 6.8 |
| 22.06.2023 | 08:48 | 21.4 | 89 | 19.5 | 1013.2 | 6.5 | NO | 387 | 6.8 |
| 22.06.2023 | 08:54 | 21.7 | 89 | 19.8 | 1013.2 | 7.9 | ONO | 378 | 6.8 |
| 22.06.2023 | 08:58 | 21.8 | 88 | 19.7 | 1013.3 | 6.5 | NO | 357 | 6.8 |
| 22.06.2023 | 09:04 | 22.1 | 87 | 19.8 | 1013.2 | 6.5 | NO | 436 | 6.8 |
| 22.06.2023 | 09:08 | 22.3 | 87 | 20.0 | 1013.0 | 6.5 | NO | 434 | 6.8 |
| 22.06.2023 | 09:14 | 22.7 | 87 | 20.4 | 1013.0 | 7.9 | NO | 441 | 6.8 |
| 22.06.2023 | 09:18 | 22.7 | 85 | 20.0 | 1013.0 | 7.9 | NO | 476 | 6.8 |
| 22.06.2023 | 09:24 | 23.1 | 85 | 20.4 | 1013.1 | 7.9 | NO | 490 | 6.8 |
| 22.06.2023 | 09:28 | 23.2 | 84 | 20.3 | 1012.9 | 7.9 | NNW | 497 | 6.8 |
| 22.06.2023 | 09:34 | 23.1 | 84 | 20.2 | 1012.9 | 6.5 | NO | 504 | 6.8 |
| 22.06.2023 | 09:38 | 23.1 | 83 | 20.1 | 1012.8 | 6.5 | N | 520 | 6.8 |
| 22.06.2023 | 09:44 | 23.4 | 83 | 20.3 | 1013.0 | 6.5 | O | 517 | 6.8 |
| 22.06.2023 | 09:48 | 23.6 | 83 | 20.5 | 1012.9 | 6.5 | N | 524 | 6.8 |
| 22.06.2023 | 09:58 | 24.1 | 81 | 20.6 | 1012.9 | 7.9 | ONO | 545 | 6.8 |
| 22.06.2023 | 10:04 | 24.4 | 81 | 20.9 | 1012.9 | 7.9 | NW | 554 | 6.8 |
| 22.06.2023 | 10:08 | 24.6 | 81 | 21.1 | 1012.9 | 7.9 | ONO | 577 | 6.8 |
| 22.06.2023 | 10:14 | 24.9 | 78 | 20.8 | 1012.9 | 7.9 | ONO | 557 | 6.8 |
| 22.06.2023 | 10:18 | 24.8 | 78 | 20.7 | 1013.0 | 7.9 | NO | 652 | 6.8 |
| 22.06.2023 | 10:24 | 25.1 | 77 | 20.8 | 1013.3 | 6.5 | ONO | 271 | 6.8 |
| 22.06.2023 | 10:28 | 24.9 | 77 | 20.6 | 1013.3 | 7.9 | ONO | 318 | 6.8 |
| 22.06.2023 | 10:34 | 25.1 | 79 | 21.2 | 1013.4 | 6.5 | ONO | 406 | 6.8 |
| 22.06.2023 | 10:38 | 25.2 | 78 | 21.1 | 1013.3 | 4.7 | O | 501 | 6.8 |
| 22.06.2023 | 10:44 | 25.3 | 77 | 21.0 | 1013.3 | 4.7 | NNW | 390 | 6.8 |
| 22.06.2023 | 10:48 | 25.3 | 77 | 21.0 | 1013.1 | 4.7 | NNO | 320 | 6.8 |
| 22.06.2023 | 10:54 | 25.2 | 77 | 20.9 | 1013.0 | 4.7 | ONO | 339 | 6.8 |
| 22.06.2023 | 10:58 | 25.3 | 78 | 21.2 | 1013.0 | 3.2 | O | 366 | 6.8 |
| 22.06.2023 | 11:04 | 25.8 | 76 | 21.2 | 1013.2 | 3.2 | NW | 432 | 6.8 |
| 22.06.2023 | 11:08 | 25.9 | 76 | 21.3 | 1013.0 | 3.2 | NO | 417 | 6.8 |
| 22.06.2023 | 11:14 | 26.5 | 74 | 21.5 | 1012.9 | 3.2 | ONO | 802 | 6.8 |
| 22.06.2023 | 11:18 | 26.5 | 74 | 21.5 | 1013.0 | 3.2 | NO | 360 | 6.8 |
| 22.06.2023 | 11:24 | 26.7 | 75 | 21.9 | 1012.6 | 3.2 | NO | 752 | 6.8 |
| 22.06.2023 | 11:28 | 27.0 | 75 | 22.2 | 1012.6 | 4.7 | ONO | 775 | 6.8 |
| 22.06.2023 | 11:34 | 27.6 | 75 | 22.8 | 1012.3 | 6.5 | OSO | 707 | 6.8 |
| 22.06.2023 | 11:38 | 27.6 | 71 | 21.9 | 1012.3 | 6.5 | ONO | 369 | 6.8 |
| 22.06.2023 | 11:44 | 27.2 | 72 | 21.7 | 1012.1 | 3.2 | ONO | 403 | 6.8 |
| 22.06.2023 | 11:48 | 27.4 | 70 | 21.4 | 1012.0 | 4.7 | NNW | 552 | 6.8 |
| 22.06.2023 | 11:54 | 27.7 | 69 | 21.5 | 1011.9 | 4.7 | ONO | 573 | 6.8 |
| 22.06.2023 | 11:58 | 27.8 | 69 | 21.6 | 1012.0 | 3.2 | OSO | 336 | 6.8 |
| 22.06.2023 | 12:04 | 27.6 | 70 | 21.6 | 1011.9 | 6.5 | ONO | 429 | 6.8 |
| 22.06.2023 | 12:08 | 27.5 | 70 | 21.5 | 1011.9 | 6.5 | NO | 457 | 6.8 |
| 22.06.2023 | 12:14 | 28.1 | 70 | 22.1 | 1011.9 | 3.2 | ONO | 403 | 6.8 |
| 22.06.2023 | 12:18 | 28.1 | 68 | 21.6 | 1012.1 | 3.2 | NNO | 603 | 6.8 |
| 22.06.2023 | 12:24 | 28.4 | 67 | 21.7 | 1011.9 | 4.7 | O | 633 | 6.8 |
| 22.06.2023 | 12:28 | 28.6 | 68 | 22.1 | 1011.8 | 3.2 | NNO | 800 | 6.8 |
| 22.06.2023 | 12:34 | 28.8 | 64 | 21.3 | 1011.7 | 1.4 | O | 694 | 6.8 |
| 22.06.2023 | 12:38 | 28.9 | 67 | 22.2 | 1011.6 | 3.2 | ONO | 547 | 6.8 |
| 22.06.2023 | 12:44 | 28.7 | 64 | 21.2 | 1011.5 | 4.7 | NO | 561 | 6.8 |
| 22.06.2023 | 12:48 | 28.8 | 67 | 22.1 | 1011.4 | 3.2 | NO | 722 | 6.8 |
| 22.06.2023 | 12:54 | 28.9 | 64 | 21.4 | 1011.6 | 3.2 | ONO | 362 | 6.8 |
| 22.06.2023 | 12:58 | 28.7 | 66 | 21.7 | 1011.6 | 3.2 | NO | 457 | 6.8 |
| 22.06.2023 | 13:04 | 29.0 | 64 | 21.5 | 1011.7 | 4.7 | O | 561 | 6.8 |
| 22.06.2023 | 13:08 | 28.7 | 64 | 21.2 | 1011.8 | 6.5 | SO | 396 | 6.8 |
| 22.06.2023 | 13:14 | 28.6 | 64 | 21.1 | 1011.8 | 3.2 | ONO | 357 | 6.8 |
| 22.06.2023 | 13:18 | 28.6 | 64 | 21.1 | 1011.8 | 3.2 | O | 415 | 6.8 |
| 22.06.2023 | 13:24 | 28.8 | 65 | 21.6 | 1011.6 | 4.7 | O | 415 | 6.8 |
| 22.06.2023 | 13:28 | 28.8 | 65 | 21.6 | 1011.6 | 4.7 | O | 406 | 6.8 |
| 22.06.2023 | 13:34 | 29.6 | 63 | 21.8 | 1011.6 | 4.7 | ONO | 928 | 6.8 |
| 22.06.2023 | 13:38 | 29.7 | 63 | 21.9 | 1011.6 | 3.2 | NW | 585 | 6.8 |
| 22.06.2023 | 13:44 | 29.6 | 61 | 21.3 | 1011.7 | 1.4 | NW | 466 | 6.8 |
| 22.06.2023 | 13:48 | 29.7 | 62 | 21.6 | 1011.7 | 1.4 | WSW | 566 | 6.8 |
| 22.06.2023 | 13:54 | 29.8 | 62 | 21.7 | 1011.7 | 3.2 | NO | 772 | 6.8 |
| 22.06.2023 | 13:58 | 29.6 | 63 | 21.8 | 1011.5 | 3.2 | ONO | 508 | 6.8 |
| 22.06.2023 | 14:04 | 29.7 | 61 | 21.4 | 1011.6 | 3.2 | ONO | 459 | 6.8 |
| 22.06.2023 | 14:08 | 29.6 | 62 | 21.5 | 1011.7 | 3.2 | NO | 457 | 6.8 |
| 22.06.2023 | 14:14 | 30.2 | 62 | 22.1 | 1011.8 | 1.4 | WNW | 981 | 6.8 |
| 22.06.2023 | 14:18 | 30.0 | 63 | 22.2 | 1011.8 | 1.4 | SW | 350 | 6.8 |
| 22.06.2023 | 14:24 | 29.7 | 62 | 21.6 | 1011.8 | 4.7 | WSW | 471 | 6.8 |
| 22.06.2023 | 14:28 | 29.7 | 61 | 21.4 | 1011.8 | 4.7 | W | 461 | 6.8 |
| 22.06.2023 | 14:34 | 29.6 | 65 | 22.3 | 1011.8 | 4.7 | WNW | 406 | 6.8 |
| 22.06.2023 | 14:38 | 29.7 | 63 | 21.9 | 1011.8 | 3.2 | WNW | 496 | 6.8 |
| 22.06.2023 | 14:44 | 30.2 | 62 | 22.1 | 1011.7 | 4.7 | W | 960 | 6.8 |
| 22.06.2023 | 14:48 | 30.4 | 61 | 22.0 | 1011.7 | 4.7 | WSW | 343 | 6.8 |
| 22.06.2023 | 14:54 | 30.0 | 63 | 22.2 | 1011.7 | 4.7 | NW | 445 | 6.8 |
| 22.06.2023 | 14:58 | 30.0 | 63 | 22.2 | 1011.7 | 4.7 | W | 459 | 6.8 |
| 22.06.2023 | 15:04 | 29.7 | 63 | 21.9 | 1011.7 | 4.7 | WSW | 327 | 6.8 |
| 22.06.2023 | 15:08 | 29.4 | 63 | 21.6 | 1011.7 | 4.7 | WNW | 448 | 6.8 |
| 22.06.2023 | 15:14 | 30.2 | 61 | 21.8 | 1011.5 | 4.7 | WSW | 700 | 6.8 |
| 22.06.2023 | 15:18 | 30.5 | 60 | 21.9 | 1011.5 | 6.5 | S | 840 | 6.8 |
| 22.06.2023 | 15:24 | 30.7 | 56 | 20.9 | 1011.4 | 6.5 | SW | 316 | 6.8 |
| 22.06.2023 | 15:28 | 30.2 | 59 | 21.3 | 1011.4 | 6.5 | SSO | 329 | 6.8 |
| 22.06.2023 | 15:34 | 29.7 | 59 | 20.8 | 1011.4 | 7.9 | SSW | 475 | 6.8 |
| 22.06.2023 | 15:38 | 29.7 | 60 | 21.1 | 1011.3 | 7.9 | S | 554 | 6.8 |
| 22.06.2023 | 15:44 | 30.2 | 61 | 21.8 | 1011.2 | 7.9 | SSW | 461 | 6.8 |
| 22.06.2023 | 15:48 | 29.9 | 61 | 21.6 | 1011.2 | 6.5 | WSW | 186 | 6.8 |
| 22.06.2023 | 15:54 | 29.1 | 63 | 21.3 | 1011.4 | 3.2 | WSW | 116 | 6.8 |
| 22.06.2023 | 15:58 | 28.7 | 64 | 21.2 | 1011.5 | 3.2 | W | 74 | 6.8 |
| 22.06.2023 | 16:04 | 28.3 | 66 | 21.3 | 1011.4 | 3.2 | WNW | 49 | 6.8 |
| 22.06.2023 | 16:08 | 28.1 | 68 | 21.6 | 1011.4 | 3.2 | WSW | 42 | 6.8 |
| 22.06.2023 | 16:14 | 27.3 | 74 | 22.3 | 1011.7 | 4.7 | WSW | 53 | 6.8 |
| 22.06.2023 | 16:18 | 25.7 | 77 | 21.4 | 1011.2 | 6.5 | SSO | 107 | 6.8 |
| 22.06.2023 | 16:24 | 23.7 | 81 | 20.2 | 1011.1 | 7.9 | SSO | 169 | 9.8 |
| 22.06.2023 | 16:28 | 23.1 | 83 | 20.1 | 1011.0 | 4.7 | SSW | 243 | 9.8 |
| 22.06.2023 | 16:34 | 23.1 | 87 | 20.8 | 1010.8 | 3.2 | WSW | 436 | 10.0 |
| 22.06.2023 | 16:38 | 23.4 | 87 | 21.1 | 1010.8 | 3.2 | SSW | 663 | 10.0 |
| 22.06.2023 | 16:44 | 24.2 | 87 | 21.9 | 1010.7 | 4.7 | SSW | 856 | 10.0 |
| 22.06.2023 | 16:48 | 24.8 | 86 | 22.3 | 1010.5 | 6.5 | SSW | 802 | 10.0 |
| 22.06.2023 | 16:54 | 25.8 | 84 | 22.9 | 1010.4 | 6.5 | SO | 722 | 10.0 |
| 22.06.2023 | 16:58 | 25.7 | 82 | 22.4 | 1010.3 | 6.5 | S | 425 | 10.0 |
| 22.06.2023 | 17:04 | 25.7 | 83 | 22.6 | 1010.3 | 6.5 | SSO | 422 | 10.0 |
| 22.06.2023 | 17:08 | 26.1 | 83 | 23.0 | 1010.2 | 4.7 | S | 506 | 10.0 |
| 22.06.2023 | 17:14 | 26.2 | 81 | 22.7 | 1010.2 | 4.7 | S | 534 | 10.0 |
| 22.06.2023 | 17:18 | 26.6 | 82 | 23.3 | 1010.2 | 4.7 | SSW | 554 | 10.0 |
| 22.06.2023 | 17:24 | 26.8 | 81 | 23.3 | 1010.2 | 6.5 | SW | 274 | 10.0 |
| 22.06.2023 | 17:28 | 26.6 | 82 | 23.3 | 1010.3 | 6.5 | SSW | 302 | 10.0 |
| 22.06.2023 | 17:34 | 27.2 | 80 | 23.4 | 1010.2 | 6.5 | SW | 524 | 10.0 |
| 22.06.2023 | 17:38 | 27.6 | 81 | 24.0 | 1010.2 | 4.7 | S | 506 | 10.0 |
| 22.06.2023 | 17:44 | 27.9 | 78 | 23.7 | 1010.3 | 4.7 | SSW | 480 | 10.0 |
| 22.06.2023 | 17:48 | 28.3 | 77 | 23.9 | 1010.2 | 4.7 | SW | 469 | 10.0 |
| 22.06.2023 | 17:54 | 28.6 | 75 | 23.7 | 1010.2 | 4.7 | SSW | 450 | 10.0 |
| 22.06.2023 | 17:58 | 28.7 | 72 | 23.1 | 1010.1 | 6.5 | SSW | 450 | 10.0 |
| 22.06.2023 | 18:04 | 28.9 | 75 | 24.0 | 1009.9 | 7.9 | SSW | 425 | 10.0 |
| 22.06.2023 | 18:08 | 28.8 | 72 | 23.2 | 1010.0 | 7.9 | SSW | 404 | 10.0 |
| 22.06.2023 | 18:14 | 28.8 | 70 | 22.8 | 1009.7 | 6.5 | SW | 392 | 10.0 |
| 22.06.2023 | 18:18 | 28.9 | 68 | 22.4 | 1009.6 | 7.9 | SW | 394 | 10.0 |
| 22.06.2023 | 18:24 | 29.0 | 69 | 22.7 | 1009.6 | 9.7 | SW | 408 | 10.0 |
| 22.06.2023 | 18:28 | 29.1 | 67 | 22.3 | 1009.5 | 9.7 | SSW | 413 | 10.0 |
| 22.06.2023 | 18:34 | 29.1 | 65 | 21.8 | 1009.4 | 7.9 | WSW | 70 | 10.0 |
| 22.06.2023 | 18:38 | 28.5 | 66 | 21.5 | 1009.7 | 6.5 | WSW | 65 | 10.0 |
| 22.06.2023 | 18:44 | 28.2 | 66 | 21.2 | 1009.7 | 6.5 | SSW | 401 | 10.0 |
| 22.06.2023 | 18:48 | 28.3 | 67 | 21.6 | 1009.8 | 6.5 | SW | 141 | 10.0 |
| 22.06.2023 | 18:54 | 28.1 | 64 | 20.6 | 1009.9 | 6.5 | WSW | 132 | 10.0 |
| 22.06.2023 | 18:58 | 28.1 | 64 | 20.6 | 1010.0 | 6.5 | W | 130 | 10.0 |
| 22.06.2023 | 19:04 | 27.9 | 61 | 19.7 | 1009.9 | 6.5 | WNW | 190 | 10.0 |
| 22.06.2023 | 19:08 | 27.8 | 62 | 19.8 | 1010.0 | 6.5 | WNW | 153 | 10.0 |
| 22.06.2023 | 19:14 | 27.7 | 62 | 19.8 | 1010.0 | 6.5 | WNW | 128 | 10.0 |
| 22.06.2023 | 19:18 | 27.6 | 59 | 18.9 | 1010.1 | 7.9 | WNW | 195 | 10.0 |
| 22.06.2023 | 19:24 | 27.7 | 60 | 19.2 | 1010.4 | 7.9 | WSW | 167 | 10.0 |
| 22.06.2023 | 19:28 | 26.3 | 68 | 19.9 | 1010.2 | 6.5 | W | 218 | 10.0 |
| 22.06.2023 | 19:34 | 25.3 | 70 | 19.4 | 1010.2 | 7.9 | W | 139 | 10.6 |
| 22.06.2023 | 19:38 | 25.4 | 68 | 19.1 | 1010.3 | 7.9 | WSW | 95 | 10.6 |
| 22.06.2023 | 19:44 | 25.1 | 68 | 18.8 | 1010.5 | 7.9 | WSW | 67 | 10.6 |
| 22.06.2023 | 19:48 | 25.4 | 65 | 18.3 | 1010.4 | 9.7 | WNW | 70 | 10.6 |
| 22.06.2023 | 19:54 | 25.4 | 65 | 18.3 | 1010.3 | 7.9 | WSW | 83 | 10.6 |
| 22.06.2023 | 19:58 | 25.2 | 70 | 19.3 | 1010.3 | 6.5 | WNW | 90 | 10.6 |
| 22.06.2023 | 20:04 | 25.6 | 65 | 18.5 | 1010.3 | 6.5 | WSW | 100 | 10.6 |
| 22.06.2023 | 20:08 | 25.7 | 64 | 18.4 | 1010.3 | 7.9 | SW | 97 | 10.6 |
| 22.06.2023 | 20:14 | 25.8 | 64 | 18.5 | 1010.5 | 6.5 | WNW | 81 | 10.6 |
| 22.06.2023 | 20:18 | 25.8 | 64 | 18.5 | 1010.4 | 6.5 | WSW | 74 | 10.6 |
| 22.06.2023 | 20:24 | 25.7 | 64 | 18.4 | 1010.5 | 6.5 | W | 62 | 10.6 |
| 22.06.2023 | 20:28 | 25.8 | 64 | 18.5 | 1010.5 | 7.9 | W | 56 | 10.6 |
| 22.06.2023 | 20:34 | 25.9 | 64 | 18.6 | 1010.5 | 7.9 | SW | 51 | 10.6 |
| 22.06.2023 | 20:38 | 25.9 | 64 | 18.6 | 1010.6 | 7.9 | W | 49 | 10.6 |
| 22.06.2023 | 20:44 | 25.7 | 65 | 18.6 | 1010.6 | 7.9 | WSW | 44 | 10.6 |
| 22.06.2023 | 20:48 | 25.7 | 65 | 18.6 | 1010.6 | 9.7 | W | 40 | 10.6 |
| 22.06.2023 | 20:54 | 25.6 | 66 | 18.8 | 1010.7 | 9.7 | WNW | 33 | 10.6 |
| 22.06.2023 | 20:58 | 25.5 | 67 | 18.9 | 1010.8 | 9.7 | WSW | 30 | 10.6 |
| 22.06.2023 | 21:04 | 25.3 | 68 | 19.0 | 1011.0 | 11.2 | WNW | 25 | 10.6 |
| 22.06.2023 | 21:08 | 25.2 | 69 | 19.1 | 1011.0 | 9.7 | WNW | 21 | 10.6 |
| 22.06.2023 | 21:14 | 25.0 | 69 | 18.9 | 1010.9 | 11.2 | W | 18 | 10.6 |
| 22.06.2023 | 21:18 | 24.9 | 68 | 18.6 | 1010.9 | 11.2 | SW | 14 | 10.6 |
| 22.06.2023 | 21:24 | 24.7 | 68 | 18.4 | 1010.6 | 13.0 | WSW | 11 | 10.6 |
| 22.06.2023 | 21:28 | 24.6 | 68 | 18.3 | 1010.6 | 14.4 | W | 9 | 10.6 |
| 22.06.2023 | 21:34 | 24.3 | 69 | 18.2 | 1010.7 | 13.0 | WNW | 5 | 10.6 |
| 22.06.2023 | 21:38 | 24.2 | 68 | 17.9 | 1010.8 | 13.0 | WNW | 0 | 10.6 |
| 22.06.2023 | 21:44 | 24.1 | 68 | 17.8 | 1011.2 | 13.0 | W | 0 | 10.6 |
| 22.06.2023 | 21:48 | 23.9 | 68 | 17.6 | 1011.7 | 14.4 | W | 0 | 10.6 |
| 22.06.2023 | 21:54 | 23.7 | 69 | 17.7 | 1011.8 | 9.7 | WNW | 0 | 10.6 |
| 22.06.2023 | 21:58 | 23.5 | 70 | 17.7 | 1012.0 | 9.7 | W | 0 | 10.6 |
| 22.06.2023 | 22:04 | 23.2 | 70 | 17.4 | 1012.4 | 7.9 | W | 0 | 10.6 |
| 22.06.2023 | 22:08 | 23.1 | 71 | 17.6 | 1012.8 | 7.9 | SSW | 0 | 10.6 |
| 22.06.2023 | 22:14 | 22.9 | 71 | 17.4 | 1013.0 | 9.7 | WSW | 0 | 10.6 |
| 22.06.2023 | 22:18 | 22.8 | 71 | 17.3 | 1013.2 | 9.7 | SW | 0 | 10.6 |
| 22.06.2023 | 22:24 | 22.6 | 72 | 17.3 | 1013.6 | 13.0 | SW | 0 | 10.6 |
| 22.06.2023 | 22:28 | 22.4 | 73 | 17.3 | 1013.7 | 13.0 | SSW | 0 | 10.6 |
| 22.06.2023 | 22:34 | 22.2 | 74 | 17.3 | 1013.7 | 11.2 | SSW | 0 | 10.6 |
| 22.06.2023 | 22:38 | 22.0 | 76 | 17.6 | 1013.9 | 11.2 | SSO | 0 | 10.6 |
| 22.06.2023 | 22:44 | 21.6 | 78 | 17.6 | 1013.9 | 11.2 | SSW | 0 | 10.6 |
| 22.06.2023 | 22:48 | 21.4 | 79 | 17.6 | 1014.0 | 11.2 | SSW | 0 | 10.6 |
| 22.06.2023 | 22:54 | 21.2 | 80 | 17.6 | 1014.1 | 9.7 | SSW | 0 | 10.6 |
| 22.06.2023 | 22:58 | 21.1 | 80 | 17.5 | 1014.0 | 9.7 | SW | 0 | 10.6 |
| 22.06.2023 | 23:04 | 21.1 | 79 | 17.3 | 1013.9 | 9.7 | S | 0 | 10.6 |
| 22.06.2023 | 23:08 | 20.9 | 80 | 17.3 | 1013.9 | 7.9 | SSW | 0 | 10.6 |
| 22.06.2023 | 23:14 | 20.7 | 82 | 17.5 | 1014.0 | 7.9 | SW | 0 | 10.6 |
| 22.06.2023 | 23:18 | 20.3 | 84 | 17.5 | 1013.9 | 7.9 | SW | 0 | 10.8 |
| 22.06.2023 | 23:24 | 19.9 | 86 | 17.5 | 1013.8 | 7.9 | WSW | 0 | 11.0 |
| 22.06.2023 | 23:28 | 19.7 | 87 | 17.5 | 1013.8 | 7.9 | SW | 0 | 11.0 |
| 22.06.2023 | 23:34 | 19.4 | 88 | 17.4 | 1013.8 | 4.7 | SW | 0 | 11.2 |
| 22.06.2023 | 23:38 | 19.2 | 89 | 17.3 | 1013.9 | 4.7 | SW | 0 | 11.4 |
| 22.06.2023 | 23:44 | 19.1 | 90 | 17.4 | 1014.1 | 4.7 | SW | 0 | 11.4 |
| 22.06.2023 | 23:48 | 19.0 | 91 | 17.5 | 1014.2 | 6.5 | S | 0 | 11.4 |
| 22.06.2023 | 23:54 | 18.9 | 91 | 17.4 | 1014.2 | 7.9 | SSW | 0 | 11.4 |
| 22.06.2023 | 23:58 | 18.9 | 91 | 17.4 | 1014.2 | 9.7 | SW | 0 | 11.4 |